Flight Track Log - Related Links

Times and Time Zones

All times are in EDT time to prevent confusion due to time zone crossing. See the CSZ9041 flight status page for this flight to view local times or setup timezone preferences in your user account.

Time Position Orientation Groundspeed Altitude Reporting Facility
EDT Latitude Longitude Course Direction KTS MPH feet Rate Location/Type
Wed 09:24:00 PM 24.5586 118.1230 241° Southwest  Level Estimated
Wed 09:25:00 PM 24.5109 118.0299 241° Southwest  Level Estimated
Wed 09:26:00 PM 24.4631 117.9369 241° Southwest  Level Estimated
Wed 09:27:00 PM 24.4153 117.8439 241° Southwest  Level Estimated
Wed 09:28:00 PM 24.3674 117.7510 241° Southwest  Level Estimated
Wed 09:29:00 PM 24.3194 117.6581 240° Southwest  Level Estimated
Wed 09:30:00 PM 24.2714 117.5653 240° Southwest  Level Estimated
Wed 09:31:00 PM 24.2233 117.4726 240° Southwest  Level Estimated
Wed 09:32:00 PM 24.1752 117.3800 240° Southwest  Level Estimated
Wed 09:33:00 PM 24.1270 117.2875 240° Southwest  Level Estimated
Wed 09:34:00 PM 24.0788 117.1950 240° Southwest  Level Estimated
Wed 09:35:00 PM 24.0305 117.1025 240° Southwest  Level Estimated
Wed 09:36:00 PM 23.9822 117.0102 240° Southwest  Level Estimated
Wed 09:37:00 PM 23.9338 116.9179 240° Southwest  Level Estimated
Wed 09:38:00 PM 23.8853 116.8257 240° Southwest  Level Estimated
Wed 09:39:00 PM 23.8368 116.7335 240° Southwest  Level Estimated
Wed 09:40:00 PM 23.7882 116.6415 240° Southwest  Level Estimated
Wed 09:41:00 PM 23.7396 116.5495 240° Southwest  Level Estimated
Wed 09:42:00 PM 23.6910 116.4575 240° Southwest  Level Estimated
Wed 09:43:00 PM 23.6422 116.3656 240° Southwest  Level Estimated
Wed 09:44:00 PM 23.5934 116.2738 240° Southwest  Level Estimated
Wed 09:45:00 PM 23.5446 116.1821 240° Southwest  Level Estimated
Wed 09:46:00 PM 23.4957 116.0904 240° Southwest  Level Estimated
Wed 09:47:00 PM 23.4468 115.9988 240° Southwest  Level Estimated
Wed 09:48:00 PM 23.3978 115.9073 240° Southwest  Level Estimated
Wed 09:49:00 PM 23.3487 115.8158 240° Southwest  Level Estimated
Wed 09:50:00 PM 23.2996 115.7245 240° Southwest  Level Estimated
Wed 09:51:00 PM 23.2505 115.6331 240° Southwest  Level Estimated
Wed 09:52:00 PM 23.2013 115.5419 240° Southwest  Level Estimated
Wed 09:53:00 PM 23.1520 115.4507 240° Southwest  Level Estimated
Wed 09:54:00 PM 23.1027 115.3596 240° Southwest  Level Estimated
Wed 09:55:00 PM 23.0533 115.2685 240° Southwest  Level Estimated
Wed 09:56:00 PM 23.0039 115.1775 239° Southwest  Level Estimated
Wed 09:57:00 PM 22.9544 115.0866 239° Southwest  Level Estimated
Wed 09:58:00 PM 22.9049 114.9957 239° Southwest  Level Estimated
Wed 09:59:00 PM 22.8553 114.9049 239° Southwest  Level Estimated
Wed 10:00:00 PM 22.8057 114.8142 239° Southwest  Level Estimated
Wed 10:01:00 PM 22.7560 114.7235 239° Southwest  Level Estimated
Wed 10:02:00 PM 22.7063 114.6329 239° Southwest  Level Estimated
Wed 10:03:00 PM 22.6565 114.5424 239° Southwest  Level Estimated
Wed 10:04:00 PM 22.6067 114.4520 239° Southwest  Level Estimated
Wed 10:05:00 PM 22.5568 114.3616 239° Southwest  Level Estimated
Wed 10:06:00 PM 22.5069 114.2712 239° Southwest  Level Estimated
Wed 10:07:00 PM 22.4569 114.1810 239° Southwest  Level Estimated
Wed 10:07:33 PM 22.2975 114.9215 289° West 380 437 18,000  Level FlightAware ADS-B
Wed 10:08:00 PM 22.4069 114.0908 239° Southwest  Level Estimated
Wed 10:08:11 PM 22.3198 114.8542 289° West 376 433 18,000  Level FlightAware ADS-B
Wed 10:08:53 PM 22.3404 114.7930 290° West 361 415 18,000  Level FlightAware ADS-B
Wed 10:09:53 PM 22.3354 114.6918 241° Southwest 298 343 18,000  Level FlightAware ADS-B
Wed 10:10:33 PM 22.3108 114.6368 245° Southwest 299 344 18,000 -532 Level FlightAware ADS-B
Wed 10:11:12 PM 22.2891 114.5869 245° Southwest 296 341 17,300 -1,191 Descending FlightAware ADS-B
Wed 10:12:54 PM 22.2537 114.4475 268° West 282 325 15,200 -1,268 Descending FlightAware ADS-B
Wed 10:13:34 PM 22.2515 114.3899 268° West 280 322 14,300 -1,425 Descending FlightAware ADS-B
Wed 10:14:14 PM 22.2495 114.3367 268° West 281 323 13,300 -1,350 Descending FlightAware ADS-B
Wed 10:14:54 PM 22.2420 114.2785 249° West 275 316 12,500 -1,250 Descending FlightAware ADS-B
Wed 10:15:50 PM 22.2215 114.2235 248° West 271 312 11,300 -1,286 Descending FlightAware ADS-B
Wed 10:18:00 PM 22.2832 114.0059 287° West  Level Estimated
Wed 10:19:00 PM 22.3089 113.9146 287° West  Level Estimated
Wed 10:20:00 PM 22.3089 113.9146 North  Level Estimated
Wed 10:21:00 PM 22.3089 113.9146 North  Level Estimated
Wed 10:22:00 PM 22.3089 113.9146 North  Level Estimated
Wed 10:23:00 PM 22.3089 113.9146 North  Level Estimated
Wed 10:24:00 PM 22.3089 113.9146 North  Level Estimated
Wed 10:25:00 PM 22.3089 113.9146 North  Level Estimated
Wed 10:26:00 PM 22.3089 113.9146 North  Level Estimated

Login

Don't have an account? Register now (free) for customized features, flight alerts, and more!